createdAt,value
2022-08-20T00:01:46.029Z,4.15
2022-08-20T00:04:15.651Z,4.57
2022-08-20T00:06:51.035Z,3.13
2022-08-20T00:09:20.641Z,3.70
2022-08-20T00:11:50.217Z,2.17
2022-08-20T00:14:19.910Z,3.25
2022-08-20T00:16:50.277Z,2.67
2022-08-20T00:19:21.471Z,3.70
2022-08-20T00:21:57.922Z,3.05
2022-08-20T00:24:27.809Z,3.40
2022-08-20T00:26:57.420Z,2.33
2022-08-20T00:29:31.561Z,2.80
2022-08-20T00:32:01.181Z,3.90
2022-08-20T00:34:30.735Z,2.50
2022-08-20T00:37:03.294Z,2.92
2022-08-20T00:39:32.879Z,3.47
2022-08-20T00:42:02.564Z,3.00
2022-08-20T00:44:32.255Z,2.80
2022-08-20T00:47:01.944Z,3.17
2022-08-20T00:49:32.792Z,2.67
2022-08-20T00:54:37.284Z,3.35
2022-08-20T00:57:10.665Z,3.00
2022-08-20T00:59:41.316Z,3.80
2022-08-20T01:02:12.305Z,3.13
2022-08-20T01:04:44.050Z,4.25
2022-08-20T01:07:16.198Z,4.80
2022-08-20T01:09:57.932Z,3.08
2022-08-20T01:12:29.413Z,4.63
2022-08-20T01:14:59.268Z,4.82
2022-08-20T01:17:29.600Z,2.67
2022-08-20T01:20:01.359Z,5.30
2022-08-20T01:22:50.877Z,4.15
2022-08-20T01:25:23.907Z,2.40
2022-08-20T01:27:56.338Z,3.03
2022-08-20T01:30:27.932Z,3.80
2022-08-20T01:32:57.591Z,4.50
2022-08-20T01:35:27.545Z,2.85
2022-08-20T01:37:57.384Z,4.77
2022-08-20T01:40:47.409Z,3.70
2022-08-20T01:43:19.605Z,3.58
2022-08-20T01:45:51.662Z,3.17
2022-08-20T01:48:22.147Z,3.33
2022-08-20T01:50:56.196Z,2.67
2022-08-20T01:53:29.630Z,4.35
2022-08-20T01:55:59.195Z,2.78
2022-08-20T01:58:31.452Z,3.05
2022-08-20T02:01:01.338Z,3.35
2022-08-20T02:03:36.583Z,2.50
2022-08-20T02:06:08.207Z,3.63
2022-08-20T02:08:37.803Z,4.00
2022-08-20T02:11:08.032Z,3.17
2022-08-20T02:13:40.978Z,2.00
2022-08-20T02:16:10.806Z,3.00
2022-08-20T02:18:40.433Z,2.97
2022-08-20T02:21:10.019Z,3.60
2022-08-20T02:23:39.612Z,2.95
2022-08-20T02:26:09.845Z,2.65
2022-08-20T02:28:42.046Z,4.45
2022-08-20T02:31:11.925Z,2.55
2022-08-20T02:33:41.509Z,3.47
2022-08-20T02:36:31.070Z,2.30
2022-08-20T02:39:00.687Z,2.88
2022-08-20T02:41:30.339Z,2.33
2022-08-20T02:44:02.539Z,4.05
2022-08-20T02:46:32.113Z,4.03
2022-08-20T02:49:01.719Z,3.00
2022-08-20T02:51:31.325Z,2.70
2022-08-20T02:54:01.022Z,2.90
2022-08-20T02:59:03.703Z,3.38
2022-08-20T03:01:33.657Z,3.65
2022-08-20T03:04:03.688Z,2.60
2022-08-20T03:06:33.263Z,3.00
2022-08-20T03:09:05.377Z,2.50
2022-08-20T03:11:35.079Z,2.45
2022-08-20T03:14:07.842Z,1.75
2022-08-20T03:16:37.447Z,2.00
2022-08-20T03:19:08.611Z,2.70
2022-08-20T03:21:38.173Z,1.75
2022-08-20T03:24:08.000Z,2.08
2022-08-20T03:26:37.593Z,3.40
2022-08-20T03:29:09.775Z,2.85
2022-08-20T03:31:39.385Z,2.00
2022-08-20T03:34:08.970Z,1.77
2022-08-20T03:36:38.568Z,1.67
2022-08-20T03:39:11.763Z,1.42
2022-08-20T03:41:41.368Z,2.00
2022-08-20T03:44:13.554Z,1.50
2022-08-20T03:46:43.203Z,2.22
2022-08-20T03:49:12.832Z,1.80
2022-08-20T03:51:51.494Z,1.75
2022-08-20T03:54:31.929Z,2.25
2022-08-20T03:57:02.963Z,2.08
2022-08-20T03:59:44.650Z,1.83
2022-08-20T04:02:14.319Z,1.67
2022-08-20T04:04:43.936Z,2.35
2022-08-20T04:07:13.982Z,1.95
2022-08-20T04:09:44.200Z,1.47
2022-08-20T04:12:15.203Z,2.47
2022-08-20T04:14:47.374Z,2.78
2022-08-20T04:17:16.969Z,2.03
2022-08-20T04:19:46.691Z,1.52
2022-08-20T04:22:16.566Z,2.45
2022-08-20T04:24:46.265Z,1.98
2022-08-20T04:27:15.847Z,3.35
2022-08-20T04:29:48.034Z,2.83
2022-08-20T04:32:17.930Z,1.33
2022-08-20T04:34:47.619Z,1.90
2022-08-20T04:37:17.567Z,2.25
2022-08-20T04:40:07.476Z,2.43
2022-08-20T04:42:36.316Z,2.55
2022-08-20T04:45:10.114Z,1.95
2022-08-20T04:47:39.667Z,2.55
2022-08-20T04:50:11.798Z,1.83
2022-08-20T04:52:44.167Z,2.50
2022-08-20T04:55:13.869Z,2.80
2022-08-20T04:57:43.428Z,2.03
2022-08-20T05:00:17.919Z,2.13
2022-08-20T05:02:47.484Z,2.88
2022-08-20T05:05:17.097Z,3.95
2022-08-20T05:07:47.461Z,1.95
2022-08-20T05:10:18.038Z,2.35
2022-08-20T05:12:57.031Z,2.35
2022-08-20T05:15:29.525Z,2.45
2022-08-20T05:18:00.716Z,2.22
2022-08-20T05:20:31.796Z,1.48
2022-08-20T05:25:32.040Z,3.88
2022-08-20T05:28:01.722Z,2.67
2022-08-20T05:30:34.099Z,2.83
2022-08-20T05:33:03.926Z,3.50
2022-08-20T05:35:34.506Z,3.97
2022-08-20T05:38:04.145Z,3.85
2022-08-20T05:40:33.772Z,3.45
2022-08-20T05:43:04.865Z,4.97
2022-08-20T05:45:37.652Z,3.85
2022-08-20T05:48:08.156Z,4.03
2022-08-20T05:50:38.247Z,4.32
2022-08-20T05:53:07.889Z,4.40
2022-08-20T05:55:37.738Z,4.97
2022-08-20T05:58:09.033Z,4.68
2022-08-20T06:00:41.289Z,4.93
2022-08-20T06:03:23.370Z,3.20
2022-08-20T06:05:52.993Z,3.80
2022-08-20T06:08:22.909Z,3.55
2022-08-20T06:10:52.517Z,4.45
2022-08-20T06:13:22.089Z,3.85
2022-08-20T06:15:54.313Z,3.63
2022-08-20T06:18:27.883Z,3.13
2022-08-20T06:20:58.458Z,3.85
2022-08-20T06:23:28.049Z,3.60
2022-08-20T06:26:24.931Z,5.15
2022-08-20T06:29:00.404Z,4.45
2022-08-20T06:31:32.805Z,5.10
2022-08-20T06:34:02.443Z,4.57
2022-08-20T06:36:32.049Z,4.95
2022-08-20T06:39:01.663Z,4.47
2022-08-20T06:41:36.250Z,4.45
2022-08-20T06:44:07.583Z,5.25
2022-08-20T06:46:40.205Z,5.03
2022-08-20T06:49:10.023Z,4.57
2022-08-20T06:51:41.287Z,4.25
2022-08-20T06:54:11.165Z,4.43
2022-08-20T06:56:40.847Z,4.65
2022-08-20T06:59:10.402Z,4.53
2022-08-20T07:01:42.637Z,4.10
2022-08-20T07:04:12.231Z,4.15
2022-08-20T07:06:41.872Z,4.63
2022-08-20T07:09:11.465Z,4.30
2022-08-20T07:11:41.483Z,5.20
2022-08-20T07:14:11.941Z,5.57
2022-08-20T07:16:44.177Z,3.67
2022-08-20T07:19:13.836Z,4.78
2022-08-20T07:21:43.434Z,3.15
2022-08-20T07:24:13.047Z,4.63
2022-08-20T07:26:42.635Z,3.78
2022-08-20T07:29:12.175Z,3.20
2022-08-20T07:31:56.776Z,3.85
2022-08-20T07:34:26.441Z,3.78
2022-08-20T07:36:55.996Z,4.13
2022-08-20T07:39:25.783Z,3.88
2022-08-20T07:42:03.382Z,3.38
2022-08-20T07:44:33.097Z,3.72
2022-08-20T07:47:06.585Z,4.32
2022-08-20T07:49:39.788Z,3.72
2022-08-20T07:52:09.725Z,2.70
2022-08-20T07:54:40.016Z,2.73
2022-08-20T07:57:12.191Z,4.22
2022-08-20T07:59:41.790Z,2.72
2022-08-20T08:02:13.921Z,2.60
2022-08-20T08:04:43.539Z,4.38
2022-08-20T08:07:13.099Z,2.53
2022-08-20T08:09:44.007Z,2.45
2022-08-20T08:14:43.417Z,3.50
2022-08-20T08:17:15.613Z,2.57
2022-08-20T08:19:49.090Z,1.70
2022-08-20T08:22:20.974Z,2.92
2022-08-20T08:24:56.741Z,2.35
2022-08-20T08:27:27.047Z,1.75
2022-08-20T08:29:56.656Z,1.30
2022-08-20T08:32:28.995Z,1.60
2022-08-20T08:34:58.517Z,1.40
2022-08-20T08:37:30.851Z,1.85
2022-08-20T08:40:01.514Z,1.45
2022-08-20T08:42:44.093Z,1.20
2022-08-20T08:45:13.671Z,1.40
2022-08-20T08:47:45.867Z,0.93
2022-08-20T08:50:49.944Z,0.90
2022-08-20T08:53:19.466Z,0.85
2022-08-20T08:55:49.152Z,0.60
2022-08-20T08:58:18.714Z,0.98
2022-08-20T09:00:56.521Z,0.70
2022-08-20T09:03:36.625Z,0.65
2022-08-20T09:06:07.495Z,0.88
2022-08-20T09:08:41.845Z,0.75
2022-08-20T09:11:11.445Z,0.70
2022-08-20T09:13:43.144Z,1.00
2022-08-20T09:16:12.744Z,0.77
2022-08-20T09:18:44.928Z,1.60
2022-08-20T09:21:14.700Z,0.60
2022-08-20T09:23:44.302Z,0.98
2022-08-20T09:26:13.912Z,0.70
2022-08-20T09:28:43.460Z,0.70
2022-08-20T09:31:13.081Z,1.65
2022-08-20T09:33:48.225Z,1.85
2022-08-20T09:36:31.977Z,0.82
2022-08-20T09:39:02.895Z,0.50
2022-08-20T09:41:33.882Z,0.70
2022-08-20T09:44:04.320Z,0.80
2022-08-20T09:46:33.932Z,0.60
2022-08-20T09:49:06.088Z,0.90
2022-08-20T09:51:38.544Z,1.17
2022-08-20T09:54:08.335Z,0.95
2022-08-20T09:56:38.522Z,1.13
2022-08-20T09:59:08.104Z,0.70
2022-08-20T10:01:37.689Z,1.85
2022-08-20T10:04:09.907Z,0.98
2022-08-20T10:06:41.749Z,2.50
2022-08-20T10:09:11.332Z,0.60
2022-08-20T10:11:40.973Z,2.05
2022-08-20T10:14:10.842Z,0.75
2022-08-20T10:16:40.417Z,0.90
2022-08-20T10:19:12.639Z,0.77
2022-08-20T10:21:42.251Z,0.77
2022-08-20T10:24:12.794Z,0.88
2022-08-20T10:26:42.391Z,0.73
2022-08-20T10:29:11.999Z,1.02
2022-08-20T10:31:41.626Z,0.70
2022-08-20T10:34:13.792Z,0.60
2022-08-20T10:36:44.767Z,0.60
2022-08-20T10:39:14.459Z,0.63
2022-08-20T10:41:44.021Z,0.63
2022-08-20T10:44:13.565Z,0.60
2022-08-20T10:46:43.120Z,0.77
2022-08-20T10:49:15.281Z,0.93
2022-08-20T10:51:44.850Z,0.88
2022-08-20T10:54:17.179Z,0.60
2022-08-20T10:56:46.764Z,0.82
2022-08-20T10:59:16.339Z,0.88
2022-08-20T11:01:45.971Z,0.70
2022-08-20T11:04:18.268Z,0.80
2022-08-20T11:06:47.813Z,1.40
2022-08-20T11:09:17.407Z,1.05
2022-08-20T11:11:47.012Z,1.05
2022-08-20T11:14:16.722Z,1.23
2022-08-20T11:16:46.274Z,0.80
2022-08-20T11:19:18.437Z,1.15
2022-08-20T11:21:48.036Z,1.38
2022-08-20T11:24:18.993Z,1.75
2022-08-20T11:26:48.991Z,1.52
2022-08-20T11:29:18.625Z,2.78
2022-08-20T11:31:48.185Z,1.52
2022-08-20T11:34:20.392Z,1.15
2022-08-20T11:36:49.975Z,1.25
2022-08-20T11:39:19.569Z,2.13
2022-08-20T11:41:49.334Z,1.00
2022-08-20T11:44:24.925Z,1.15
2022-08-20T11:46:54.461Z,1.10
2022-08-20T11:49:26.748Z,2.30
2022-08-20T11:51:56.441Z,1.15
2022-08-20T11:54:28.923Z,5.70
2022-08-20T11:56:59.617Z,2.08
2022-08-20T11:59:29.222Z,3.42
2022-08-20T12:02:02.692Z,2.17
2022-08-20T12:04:35.525Z,2.33
2022-08-20T12:07:12.831Z,1.42
2022-08-20T12:09:51.107Z,1.67
2022-08-20T12:12:22.325Z,2.85
2022-08-20T12:14:51.937Z,1.70
2022-08-20T12:17:24.115Z,2.38
2022-08-20T12:19:57.220Z,2.33
2022-08-20T12:22:26.952Z,1.88
2022-08-20T12:24:56.705Z,1.37
2022-08-20T12:27:27.156Z,3.00
2022-08-20T12:29:57.827Z,2.00
2022-08-20T12:32:30.630Z,1.73
2022-08-20T12:35:02.851Z,1.52
2022-08-20T12:37:32.966Z,1.35
2022-08-20T12:40:03.394Z,1.58
2022-08-20T12:42:33.208Z,3.63
2022-08-20T12:45:02.913Z,3.08
2022-08-20T12:47:33.209Z,1.88
2022-08-20T12:50:06.877Z,1.90
2022-08-20T12:52:36.617Z,1.90
2022-08-20T12:55:06.871Z,3.17
2022-08-20T12:57:37.963Z,1.80
2022-08-20T13:00:10.838Z,1.55
2022-08-20T13:02:41.303Z,3.17
2022-08-20T13:07:44.070Z,1.63
2022-08-20T13:10:15.528Z,3.00
2022-08-20T13:12:45.202Z,3.40
2022-08-20T13:15:15.199Z,2.00
2022-08-20T13:17:44.937Z,1.20
2022-08-20T13:20:18.723Z,2.65
2022-08-20T13:22:48.318Z,1.23
2022-08-20T13:25:17.900Z,2.20
2022-08-20T13:27:47.560Z,1.50
2022-08-20T13:30:19.852Z,2.03
2022-08-20T13:32:49.530Z,1.10
2022-08-20T13:35:22.229Z,2.07
2022-08-20T13:37:52.091Z,1.42
2022-08-20T13:40:21.882Z,3.58
2022-08-20T13:42:51.493Z,2.15
2022-08-20T13:45:21.183Z,1.73
2022-08-20T13:47:53.695Z,2.95
2022-08-20T13:50:27.470Z,1.75
2022-08-20T13:52:57.363Z,1.20
2022-08-20T13:55:28.227Z,2.72
2022-08-20T13:57:58.906Z,2.95
2022-08-20T14:00:31.849Z,5.33
2022-08-20T14:03:02.051Z,1.77
2022-08-20T14:05:34.414Z,1.73
2022-08-20T14:08:08.648Z,2.25
2022-08-20T14:10:38.457Z,2.08
2022-08-20T14:13:11.231Z,2.17
2022-08-20T14:15:44.361Z,3.45
2022-08-20T14:18:14.448Z,4.73
2022-08-20T14:20:47.052Z,1.83
2022-08-20T14:23:16.633Z,3.40
2022-08-20T14:25:47.904Z,3.10
2022-08-20T14:28:18.914Z,3.22
2022-08-20T14:30:52.710Z,5.07
2022-08-20T14:33:23.408Z,4.05
2022-08-20T14:35:55.847Z,2.58
2022-08-20T14:38:25.462Z,2.10
2022-08-20T14:40:55.627Z,3.83
2022-08-20T14:43:25.158Z,1.98
2022-08-20T14:45:55.020Z,2.65
2022-08-20T14:48:25.597Z,1.80
2022-08-20T14:50:59.575Z,1.63
2022-08-20T14:53:29.227Z,2.13
2022-08-20T14:55:58.813Z,2.60
2022-08-20T14:58:28.759Z,1.90
2022-08-20T15:00:58.395Z,2.47
2022-08-20T15:03:30.617Z,2.15
2022-08-20T15:06:03.236Z,2.85
2022-08-20T15:08:32.780Z,1.70
2022-08-20T15:11:02.537Z,2.30
2022-08-20T15:13:32.096Z,2.70
2022-08-20T15:16:02.001Z,2.83
2022-08-20T15:18:32.086Z,3.75
2022-08-20T15:21:04.255Z,3.10
2022-08-20T15:23:39.881Z,2.60
2022-08-20T15:26:09.744Z,3.73
2022-08-20T15:28:39.326Z,2.72
2022-08-20T15:31:11.630Z,2.23
2022-08-20T15:33:41.276Z,3.15
2022-08-20T15:36:13.827Z,2.43
2022-08-20T15:38:43.438Z,4.07
2022-08-20T15:41:13.114Z,3.43
2022-08-20T15:43:42.726Z,2.72
2022-08-20T15:46:12.299Z,3.93
2022-08-20T15:48:42.819Z,5.77
2022-08-20T15:53:58.323Z,2.80
2022-08-20T15:56:35.294Z,6.07
2022-08-20T15:59:11.952Z,3.58
2022-08-20T16:01:47.874Z,4.05
2022-08-20T16:04:53.092Z,5.95
2022-08-20T16:07:27.691Z,4.03
2022-08-20T16:10:04.240Z,3.75
2022-08-20T16:12:35.919Z,4.45
2022-08-20T16:15:10.747Z,3.85
2022-08-20T16:17:42.454Z,6.80
2022-08-20T16:20:14.449Z,4.55
2022-08-20T16:22:47.904Z,5.32
2022-08-20T16:25:17.852Z,4.47
2022-08-20T16:27:52.298Z,4.15
2022-08-20T16:30:23.510Z,6.00
2022-08-20T16:32:56.179Z,3.88
2022-08-20T16:35:30.275Z,4.70
2022-08-20T16:38:06.849Z,5.57
2022-08-20T16:40:38.381Z,5.43
2022-08-20T16:43:08.786Z,6.13
2022-08-20T16:45:43.497Z,3.40
2022-08-20T16:48:15.292Z,4.07
2022-08-20T16:50:50.865Z,3.67
2022-08-20T16:53:24.180Z,5.18
2022-08-20T16:55:53.781Z,4.57
2022-08-20T16:58:23.405Z,4.22
2022-08-20T17:00:53.950Z,5.90
2022-08-20T17:06:18.481Z,6.15
2022-08-20T17:08:52.691Z,6.53
2022-08-20T17:11:27.192Z,5.45
2022-08-20T17:14:10.346Z,6.72
2022-08-20T17:16:43.350Z,6.53
2022-08-20T17:19:17.869Z,7.72
2022-08-20T17:21:50.172Z,6.20
2022-08-20T17:24:26.208Z,6.85
2022-08-20T17:27:00.780Z,6.72
2022-08-20T17:29:31.727Z,6.22
2022-08-20T17:32:02.093Z,5.35
2022-08-20T17:34:33.042Z,7.25
2022-08-20T17:37:04.745Z,4.53
2022-08-20T17:39:37.054Z,6.13
2022-08-20T17:42:08.960Z,6.95
2022-08-20T17:44:40.485Z,6.65
2022-08-20T17:47:13.335Z,5.53
2022-08-20T17:49:54.978Z,7.80
2022-08-20T17:52:33.971Z,6.47
2022-08-20T17:55:06.528Z,7.78
2022-08-20T17:57:38.630Z,6.05
2022-08-20T18:00:14.078Z,7.78
2022-08-20T18:02:43.717Z,5.53
2022-08-20T18:05:17.067Z,6.55
2022-08-20T18:07:50.827Z,6.72
2022-08-20T18:10:24.255Z,7.78
2022-08-20T18:12:57.380Z,5.72
2022-08-20T18:15:28.578Z,5.50
2022-08-20T18:18:09.253Z,7.15
2022-08-20T18:20:57.613Z,5.93
2022-08-20T18:23:29.140Z,6.07
2022-08-20T18:26:05.383Z,7.45
2022-08-20T18:28:38.776Z,7.90
2022-08-20T18:31:10.481Z,6.57
2022-08-20T18:33:42.142Z,7.72
2022-08-20T18:36:13.512Z,6.22
2022-08-20T18:38:44.632Z,6.45
2022-08-20T18:41:18.594Z,6.82
2022-08-20T18:43:48.332Z,7.25
2022-08-20T18:46:23.731Z,7.75
2022-08-20T18:48:58.346Z,7.63
2022-08-20T18:51:32.031Z,8.50
2022-08-20T18:54:01.635Z,6.85
2022-08-20T18:56:39.556Z,5.88
2022-08-20T18:59:12.979Z,10.02
2022-08-20T19:01:43.214Z,8.13
2022-08-20T19:04:19.782Z,6.95
2022-08-20T19:06:55.503Z,8.40
2022-08-20T19:09:35.750Z,5.90
2022-08-20T19:12:28.416Z,7.75
2022-08-20T19:15:03.475Z,7.63
2022-08-20T19:17:56.317Z,5.95
2022-08-20T19:20:26.967Z,7.85
2022-08-20T19:22:57.473Z,5.97
2022-08-20T19:25:30.251Z,7.32
2022-08-20T19:28:04.045Z,8.38
2022-08-20T19:30:36.621Z,6.40
2022-08-20T19:33:06.435Z,6.85
2022-08-20T19:35:36.376Z,8.05
2022-08-20T19:38:06.287Z,9.82
2022-08-20T19:40:39.309Z,8.50
2022-08-20T19:43:14.997Z,6.13
2022-08-20T19:45:47.891Z,7.07
2022-08-20T19:48:32.099Z,6.70
2022-08-20T19:51:05.917Z,6.78
2022-08-20T19:53:36.653Z,7.03
2022-08-20T19:58:41.751Z,8.73
2022-08-20T20:01:13.137Z,9.00
2022-08-20T20:03:42.751Z,7.15
2022-08-20T20:06:17.314Z,9.63
2022-08-20T20:08:48.415Z,7.22
2022-08-20T20:11:19.981Z,8.63
2022-08-20T20:13:52.178Z,8.10
2022-08-20T20:16:23.113Z,9.07
2022-08-20T20:19:15.569Z,6.55
2022-08-20T20:21:43.527Z,6.80
2022-08-20T20:26:43.760Z,7.43
2022-08-20T20:31:51.120Z,8.07
2022-08-20T20:34:21.766Z,6.63
2022-08-20T20:36:51.343Z,6.40
2022-08-20T20:39:30.305Z,6.75
2022-08-20T20:42:01.750Z,6.97
2022-08-20T20:44:37.292Z,8.02
2022-08-20T20:47:08.559Z,9.02
2022-08-20T20:49:50.152Z,6.70
2022-08-20T20:52:24.019Z,6.90
2022-08-20T20:54:53.614Z,7.22
2022-08-20T20:57:37.940Z,6.35
2022-08-20T21:00:14.415Z,7.28
2022-08-20T21:02:44.047Z,4.72
2022-08-20T21:05:13.955Z,7.10
2022-08-20T21:07:50.653Z,7.17
2022-08-20T21:10:21.054Z,6.03
2022-08-20T21:12:53.129Z,6.82
2022-08-20T21:15:26.512Z,8.45
2022-08-20T21:17:56.189Z,7.00
2022-08-20T21:20:25.760Z,7.07
2022-08-20T21:22:57.288Z,6.82
2022-08-20T21:25:27.139Z,6.50
2022-08-20T21:27:56.727Z,8.15
2022-08-20T21:30:28.972Z,6.18
2022-08-20T21:32:58.724Z,5.95
2022-08-20T21:35:28.500Z,6.50
2022-08-20T21:37:58.103Z,5.53
2022-08-20T21:40:28.355Z,6.90
2022-08-20T21:42:58.600Z,7.35
2022-08-20T21:45:30.851Z,4.95
2022-08-20T21:48:01.296Z,5.93
2022-08-20T21:50:30.855Z,4.97
2022-08-20T21:53:00.541Z,6.75
2022-08-20T21:55:35.027Z,7.57
2022-08-20T21:58:07.303Z,5.65
2022-08-20T22:00:55.445Z,5.90
2022-08-20T22:03:25.857Z,7.72
2022-08-20T22:05:55.485Z,5.53
2022-08-20T22:08:28.504Z,5.90
2022-08-20T22:10:58.423Z,6.80
2022-08-20T22:13:31.410Z,7.55
2022-08-20T22:16:03.959Z,6.95
2022-08-20T22:18:33.661Z,6.45
2022-08-20T22:21:03.211Z,6.05
2022-08-20T22:23:33.043Z,6.70
2022-08-20T22:26:02.647Z,4.70
2022-08-20T22:28:32.575Z,5.18
2022-08-20T22:31:04.874Z,6.47
2022-08-20T22:33:34.624Z,6.22
2022-08-20T22:36:04.426Z,6.60
2022-08-20T22:38:34.001Z,4.75
2022-08-20T22:41:09.000Z,4.72
2022-08-20T22:43:46.182Z,5.20
2022-08-20T22:46:29.976Z,5.43
2022-08-20T22:48:59.570Z,4.90
2022-08-20T22:51:30.592Z,6.07
2022-08-20T22:54:00.725Z,5.68
2022-08-20T22:56:30.303Z,4.85
2022-08-20T22:59:00.489Z,6.72
2022-08-20T23:01:33.215Z,7.50
2022-08-20T23:04:06.639Z,6.75
2022-08-20T23:06:36.191Z,9.23
2022-08-20T23:09:06.012Z,6.18
2022-08-20T23:11:35.561Z,6.28
2022-08-20T23:14:05.129Z,6.93
2022-08-20T23:16:44.747Z,6.20
2022-08-20T23:19:16.099Z,6.53
2022-08-20T23:21:45.646Z,7.10
2022-08-20T23:24:15.220Z,5.45
2022-08-20T23:26:52.588Z,6.38
2022-08-20T23:29:25.903Z,4.75
2022-08-20T23:31:58.667Z,4.50
2022-08-20T23:34:28.481Z,6.88
2022-08-20T23:36:58.524Z,4.50
2022-08-20T23:39:28.611Z,8.43
2022-08-20T23:41:58.199Z,7.45
2022-08-20T23:44:27.798Z,7.40
2022-08-20T23:47:01.382Z,6.57
2022-08-20T23:49:31.038Z,5.70
2022-08-20T23:52:00.822Z,6.07
2022-08-20T23:54:30.911Z,6.63
2022-08-20T23:57:00.459Z,9.90
2022-08-20T23:59:30.024Z,7.07
